PWSweather.com
Personal Weather Stations
Station Observations
WOKING
Knaphill, WokingGB GU21 2DH

KnaphillWokingGB GU21 2DH

Lat: 51.314, Lon: -0.631

Elevation: 154

Station Type: Davis VP2

Latest ConditionsUpdated 8:00:02 PM GMT Monday, Feb 19, 2018
Currently Today's Max Today's Min Today's Average
Temperature 50.1°F10.1°C 51.4°F10.8°C 43.4°F6.3°C 47.0°F8.3°C
Dew Point 47.9°F8.8°C 50.4°F10.2°C 42.4°F5.8°C 46.0°F7.8°C
Winds Calm Calm 1.2 mph NE1.9 kmh NE - 0.0 mph 0.0 kmh
Wind Gusts 1.2 mph1.9 kmh 3.5 mph5.6 kmh - -
Humidity 92% 98% 92% 96%
Pressure 30.00 in1015.9 mb 30.08 in1018.6 mb 29.98 in1015.2 mb -
Precipitation - 0.07 in1.8 mm - -
Hour Temp Dew Point Humidity Winds Wind Gusts Pressure Precip Precip Rate Daily Precip Total
08:00 PM 50.1°F10.1°C 47.9°F8.8°C 92% Calm Calm 1.2 mph1.9 kmh 30.00 in1015.9 mb - 0.00 in0.0 mm 0.07 in1.8 mm
07:45 PM 50.2°F10.1°C 48.2°F9.0°C 93% Calm Calm 3.5 mph5.6 kmh 30.00 in1015.9 mb - 0.00 in0.0 mm 0.07 in1.8 mm
07:30 PM 50.2°F10.1°C 48.3°F9.1°C 93% Calm Calm 1.2 mph1.9 kmh 30.00 in1015.9 mb - 0.00 in0.0 mm 0.07 in1.8 mm
06:45 PM 50.4°F10.2°C 48.5°F9.2°C 93% Calm Calm -- 30.00 in1015.9 mb - 0.00 in0.0 mm 0.07 in1.8 mm
06:30 PM 50.5°F10.3°C 48.8°F9.3°C 94% Calm Calm 1.2 mph1.9 kmh 30.00 in1015.9 mb - 0.00 in0.0 mm 0.07 in1.8 mm
06:15 PM 50.5°F10.3°C 48.8°F9.3°C 94% Calm Calm -- 30.00 in1015.9 mb - 0.00 in0.0 mm 0.07 in1.8 mm
06:00 PM 50.6°F10.3°C 48.9°F9.4°C 94% Calm Calm -- 30.00 in1015.9 mb - 0.00 in0.0 mm 0.07 in1.8 mm
05:45 PM 50.7°F10.4°C 49.3°F9.6°C 95% Calm Calm 2.3 mph3.7 kmh 30.00 in1015.9 mb - 0.00 in0.0 mm 0.07 in1.8 mm
05:30 PM 50.8°F10.4°C 49.4°F9.7°C 95% Calm Calm -- 30.00 in1015.9 mb - 0.00 in0.0 mm 0.07 in1.8 mm
04:45 PM 51.1°F10.6°C 49.7°F9.8°C 95% Calm Calm 1.2 mph1.9 kmh 29.99 in1015.6 mb - 0.00 in0.0 mm 0.07 in1.8 mm
04:30 PM 51.2°F10.7°C 49.8°F9.9°C 95% 1.2 mph N1.9 kmh N 3.5 mph5.6 kmh 29.99 in1015.6 mb - 0.00 in0.0 mm 0.07 in1.8 mm
04:15 PM 51.2°F10.7°C 50.1°F10.1°C 96% Calm Calm 3.5 mph5.6 kmh 29.98 in1015.2 mb - 0.00 in0.0 mm 0.07 in1.8 mm
04:00 PM 51.3°F10.7°C 50.2°F10.1°C 96% Calm Calm 2.3 mph3.7 kmh 29.98 in1015.2 mb - 0.00 in0.0 mm 0.07 in1.8 mm
03:45 PM 51.4°F10.8°C 50.3°F10.2°C 96% Calm Calm -- 29.98 in1015.2 mb - 0.00 in0.0 mm 0.07 in1.8 mm
02:45 PM 51.3°F10.7°C 50.2°F10.1°C 96% Calm Calm -- 29.98 in1015.2 mb - 0.01 in0.3 mm 0.07 in1.8 mm
02:30 PM 51.2°F10.7°C 50.4°F10.2°C 97% 1.2 mph NE1.9 kmh NE 3.5 mph5.6 kmh 29.98 in1015.2 mb - 0.00 in0.0 mm 0.06 in1.5 mm
02:15 PM 51.1°F10.6°C 50.0°F10.0°C 96% Calm Calm 1.2 mph1.9 kmh 29.98 in1015.2 mb - 0.00 in0.0 mm 0.06 in1.5 mm
02:00 PM 51.1°F10.6°C 50.3°F10.2°C 97% Calm Calm 3.5 mph5.6 kmh 29.98 in1015.2 mb - 0.00 in0.0 mm 0.06 in1.5 mm
01:45 PM 50.9°F10.5°C 50.4°F10.2°C 98% Calm Calm 1.2 mph1.9 kmh 29.98 in1015.2 mb - 0.00 in0.0 mm 0.06 in1.5 mm
01:30 PM 50.7°F10.4°C 50.2°F10.1°C 98% Calm Calm 1.2 mph1.9 kmh 29.99 in1015.6 mb - 0.00 in0.0 mm 0.06 in1.5 mm
12:45 PM 49.8°F9.9°C 49.3°F9.6°C 98% Calm Calm 2.3 mph3.7 kmh 30.00 in1015.9 mb - 0.00 in0.0 mm 0.06 in1.5 mm
12:30 PM 49.5°F9.7°C 49.0°F9.4°C 98% Calm Calm 1.2 mph1.9 kmh 30.00 in1015.9 mb - 0.00 in0.0 mm 0.06 in1.5 mm
12:15 PM 49.1°F9.5°C 48.6°F9.2°C 98% Calm Calm -- 30.00 in1015.9 mb - 0.00 in0.0 mm 0.06 in1.5 mm
12:00 PM 48.7°F9.3°C 48.2°F9.0°C 98% Calm Calm 1.2 mph1.9 kmh 30.00 in1015.9 mb - 0.00 in0.0 mm 0.06 in1.5 mm
11:45 AM 48.3°F9.1°C 47.8°F8.8°C 98% Calm Calm 1.2 mph1.9 kmh 30.01 in1016.3 mb - 0.00 in0.0 mm 0.06 in1.5 mm
11:30 AM 48.0°F8.9°C 47.5°F8.6°C 98% Calm Calm -- 30.01 in1016.3 mb - 0.00 in0.0 mm 0.06 in1.5 mm
10:45 AM 47.2°F8.4°C 46.7°F8.2°C 98% Calm Calm -- 30.01 in1016.3 mb - 0.01 in0.3 mm 0.06 in1.5 mm
10:30 AM 46.8°F8.2°C 46.3°F7.9°C 98% Calm Calm -- 30.01 in1016.3 mb - 0.00 in0.0 mm 0.06 in1.5 mm
10:15 AM 46.6°F8.1°C 46.1°F7.8°C 98% Calm Calm -- 30.01 in1016.3 mb - 0.01 in0.3 mm 0.06 in1.5 mm
10:00 AM 46.4°F8.0°C 45.9°F7.7°C 98% Calm Calm -- 30.02 in1016.6 mb - 0.02 in0.5 mm 0.05 in1.3 mm
09:30 AM 45.6°F7.6°C 45.1°F7.3°C 98% Calm Calm -- 30.02 in1016.6 mb - 0.01 in0.3 mm 0.03 in0.8 mm
09:15 AM 45.3°F7.4°C 44.7°F7.1°C 98% Calm Calm -- 30.02 in1016.6 mb - 0.01 in0.3 mm 0.03 in0.8 mm
09:00 AM 45.0°F7.2°C 44.2°F6.8°C 97% Calm Calm -- 30.02 in1016.6 mb - 0.00 in0.0 mm 0.02 in0.5 mm
08:45 AM 44.9°F7.2°C 44.3°F6.8°C 98% Calm Calm -- 30.02 in1016.6 mb - 0.00 in0.0 mm 0.02 in0.5 mm
08:30 AM 44.6°F7.0°C 44.1°F6.7°C 98% Calm Calm 1.2 mph1.9 kmh 30.02 in1016.6 mb - 0.00 in0.0 mm 0.02 in0.5 mm
08:15 AM 44.4°F6.9°C 43.6°F6.4°C 97% Calm Calm -- 30.02 in1016.6 mb - 0.00 in0.0 mm 0.02 in0.5 mm
07:30 AM 44.1°F6.7°C 43.3°F6.3°C 97% Calm Calm -- 30.03 in1016.9 mb - 0.00 in0.0 mm 0.02 in0.5 mm
07:15 AM 44.0°F6.7°C 43.2°F6.2°C 97% Calm Calm 1.2 mph1.9 kmh 30.03 in1016.9 mb - 0.00 in0.0 mm 0.02 in0.5 mm
07:00 AM 44.0°F6.7°C 43.2°F6.2°C 97% Calm Calm -- 30.03 in1016.9 mb - 0.00 in0.0 mm 0.02 in0.5 mm
06:45 AM 43.9°F6.6°C 43.1°F6.2°C 97% Calm Calm -- 30.03 in1016.9 mb - 0.00 in0.0 mm 0.02 in0.5 mm
06:30 AM 43.9°F6.6°C 43.1°F6.2°C 97% Calm Calm -- 30.03 in1016.9 mb - 0.00 in0.0 mm 0.02 in0.5 mm
05:45 AM 43.6°F6.4°C 42.8°F6.0°C 97% Calm Calm -- 30.03 in1016.9 mb - 0.00 in0.0 mm 0.02 in0.5 mm
05:30 AM 43.6°F6.4°C 42.8°F6.0°C 97% Calm Calm -- 30.03 in1016.9 mb - 0.00 in0.0 mm 0.02 in0.5 mm
05:15 AM 43.6°F6.4°C 42.8°F6.0°C 97% Calm Calm -- 30.02 in1016.6 mb - 0.01 in0.3 mm 0.02 in0.5 mm
05:00 AM 43.6°F6.4°C 42.8°F6.0°C 97% Calm Calm -- 30.03 in1016.9 mb - 0.01 in0.3 mm 0.02 in0.5 mm
04:45 AM 43.5°F6.4°C 42.7°F5.9°C 97% Calm Calm -- 30.03 in1016.9 mb - 0.00 in0.0 mm 0.02 in0.5 mm
04:30 AM 43.4°F6.3°C 42.6°F5.9°C 97% Calm Calm -- 30.03 in1016.9 mb - 0.01 in0.3 mm 0.02 in0.5 mm
03:45 AM 43.4°F6.3°C 42.6°F5.9°C 97% Calm Calm -- 30.04 in1017.3 mb - 0.00 in0.0 mm 0.01 in0.3 mm
03:30 AM 43.4°F6.3°C 42.6°F5.9°C 97% Calm Calm -- 30.04 in1017.3 mb - 0.00 in0.0 mm 0.01 in0.3 mm
03:15 AM 43.4°F6.3°C 42.6°F5.9°C 97% Calm Calm -- 30.05 in1017.6 mb - 0.00 in0.0 mm 0.01 in0.3 mm
03:00 AM 43.4°F6.3°C 42.6°F5.9°C 97% Calm Calm -- 30.05 in1017.6 mb - 0.00 in0.0 mm 0.01 in0.3 mm
02:45 AM 43.5°F6.4°C 42.7°F5.9°C 97% Calm Calm -- 30.05 in1017.6 mb - 0.00 in0.0 mm 0.01 in0.3 mm
02:30 AM 43.5°F6.4°C 42.4°F5.8°C 96% Calm Calm -- 30.06 in1017.9 mb - 0.01 in0.3 mm 0.01 in0.3 mm
01:45 AM 43.6°F6.4°C 42.5°F5.8°C 96% Calm Calm -- 30.07 in1018.3 mb - 0.00 in0.0 mm 0.00 in0.0 mm
01:30 AM 43.6°F6.4°C 42.5°F5.8°C 96% Calm Calm -- 30.07 in1018.3 mb - 0.00 in0.0 mm 0.00 in0.0 mm
01:15 AM 43.6°F6.4°C 42.5°F5.8°C 96% Calm Calm -- 30.08 in1018.6 mb - 0.00 in0.0 mm 0.00 in0.0 mm
01:00 AM 43.6°F6.4°C 42.5°F5.8°C 96% Calm Calm -- 30.08 in1018.6 mb - 0.00 in0.0 mm 0.00 in0.0 mm
12:45 AM 43.6°F6.4°C 42.5°F5.8°C 96% Calm Calm -- 30.08 in1018.6 mb - 0.00 in0.0 mm 0.00 in0.0 mm
12:30 AM 43.6°F6.4°C 42.5°F5.8°C 96% Calm Calm -- 30.08 in1018.6 mb - 0.00 in0.0 mm 0.00 in0.0 mm